Time;durP1;ratioP1;P1;durP2;ratioP2;P2;SDS_P1;SDS_P2;PMS_P1;PMS_P2;Temp;Humidity;BMP_temperature;BMP_pressure;BME280_temperature;BME280_humidity;BME280_pressure;Samples;Min_cycle;Max_cycle;Signal;HPM_P1;HPM_P2
2022/03/31 00:00:25;;;;;;;23.63;6.00;;;;;;;-0.66;48.74;98767.91;5033493;28;20041;-52
2022/03/31 00:02:51;;;;;;;15.73;5.63;;;;;;;-0.67;48.43;98764.53;5033547;28;20053;-51
2022/03/31 00:05:17;;;;;;;12.52;5.57;;;;;;;-0.71;48.40;98769.66;5032714;28;20505;-54
2022/03/31 00:07:50;;;;;;;11.27;5.15;;;;;;;-0.72;48.56;98762.84;5015629;28;20399;-50
2022/03/31 00:10:45;;;;;;;17.23;5.57;;;;;;;-0.72;49.06;98762.84;5017884;28;20398;-54
2022/03/31 00:13:22;;;;;;;14.00;5.53;;;;;;;-0.75;48.83;98766.28;5032599;28;20029;-52
2022/03/31 00:15:48;;;;;;;13.10;5.22;;;;;;;-0.77;49.15;98762.88;5065450;28;20100;-52
2022/03/31 00:18:14;;;;;;;17.80;5.75;;;;;;;-0.78;49.38;98768.81;5032841;28;20608;-52
2022/03/31 00:20:40;;;;;;;16.42;5.43;;;;;;;-0.83;49.51;98777.34;5032805;28;20505;-50
2022/03/31 00:34:07;;;;;;;25.80;7.07;;;;;;;-1.12;49.82;98778.28;5033242;28;20041;-54
2022/03/31 00:36:33;;;;;;;17.52;6.45;;;;;;;-1.13;50.27;98775.72;5032598;28;20037;-54
2022/03/31 00:41:43;;;;;;;19.10;6.18;;;;;;;-1.14;50.64;98784.22;5016548;28;20042;-52
2022/03/31 00:44:09;;;;;;;23.73;8.00;;;;;;;-1.24;50.62;98765.56;5033250;28;20060;-50
2022/03/31 00:46:35;;;;;;;18.88;6.93;;;;;;;-1.13;50.88;98781.69;5031206;28;20136;-50
2022/03/31 00:49:04;;;;;;;20.13;6.93;;;;;;;-1.20;51.02;98776.63;5032862;28;20171;-52
2022/03/31 00:51:30;;;;;;;16.97;7.47;;;;;;;-1.23;51.35;98780.00;5031547;28;20037;-53
2022/03/31 00:53:56;;;;;;;19.42;9.15;;;;;;;-1.24;51.47;98780.84;5032572;28;20049;-53
2022/03/31 00:56:24;;;;;;;20.15;7.68;;;;;;;-1.27;51.48;98783.44;5030181;28;20095;-51
2022/03/31 00:58:50;;;;;;;23.83;9.43;;;;;;;-1.30;51.52;98796.16;5029379;28;20057;-52
2022/03/31 01:01:17;;;;;;;23.85;10.52;;;;;;;-1.37;51.39;98791.94;5042039;28;20049;-50
2022/03/31 01:03:43;;;;;;;25.77;10.93;;;;;;;-1.32;51.50;98797.88;5028753;28;20120;-53
2022/03/31 01:06:09;;;;;;;21.38;9.77;;;;;;;-1.34;51.79;98792.78;5030384;28;20048;-51
2022/03/31 01:08:35;;;;;;;26.00;8.55;;;;;;;-1.38;51.76;98793.63;5027276;28;20037;-50
2022/03/31 01:11:00;;;;;;;27.38;9.40;;;;;;;-1.38;52.04;98793.63;5019563;28;20065;-50
2022/03/31 01:13:26;;;;;;;18.83;8.02;;;;;;;-1.39;52.29;98803.81;5030467;28;20102;-48
2022/03/31 01:15:52;;;;;;;19.52;6.65;;;;;;;-1.46;52.04;98795.31;5030803;28;20037;-49
2022/03/31 01:18:18;;;;;;;24.15;7.82;;;;;;;-1.45;51.91;98798.72;5012733;28;20045;-53
2022/03/31 01:20:44;;;;;;;20.52;7.63;;;;;;;-1.45;52.30;98804.69;5031394;28;20429;-51
2022/03/31 01:23:11;;;;;;;17.90;7.30;;;;;;;-1.49;51.83;98799.59;5029741;28;20049;-50
2022/03/31 01:25:36;;;;;;;16.85;6.90;;;;;;;-1.53;51.99;98803.00;5031116;28;20037;-51
2022/03/31 01:28:02;;;;;;;19.92;7.25;;;;;;;-1.53;52.04;98798.75;5031295;28;20044;-54
2022/03/31 01:30:28;;;;;;;15.93;6.75;;;;;;;-1.55;52.15;98797.03;5022813;28;20410;-51
2022/03/31 01:32:54;;;;;;;14.52;6.78;;;;;;;-1.53;52.46;98806.41;5029291;28;20041;-51
2022/03/31 01:35:20;;;;;;;17.42;6.72;;;;;;;-1.57;52.47;98804.66;5031922;28;20041;-53
2022/03/31 01:37:47;;;;;;;15.63;6.85;;;;;;;-1.60;52.43;98802.13;5013761;28;20051;-51
2022/03/31 01:40:13;;;;;;;19.98;7.30;;;;;;;-1.60;52.73;98801.28;5019477;28;20052;-55
2022/03/31 01:42:42;;;;;;;16.00;6.70;;;;;;;-1.61;52.61;98792.78;5031594;28;20045;-55
2022/03/31 01:45:10;;;;;;;25.67;7.47;;;;;;;-1.63;52.81;98807.25;5027563;28;20099;-53
2022/03/31 01:47:36;;;;;;;20.73;6.97;;;;;;;-1.65;52.60;98805.53;5031756;28;20037;-51
2022/03/31 01:50:03;;;;;;;18.42;6.30;;;;;;;-1.77;52.95;98776.66;5029537;28;20037;-53
2022/03/31 01:52:29;;;;;;;17.13;6.93;;;;;;;-1.59;52.99;98808.94;5030121;28;20577;-51
2022/03/31 01:54:55;;;;;;;16.38;6.30;;;;;;;-1.71;53.19;98786.84;5030616;28;20073;-53
2022/03/31 01:57:21;;;;;;;19.15;6.82;;;;;;;-1.59;53.31;98803.00;5030813;28;20126;-54
2022/03/31 01:59:46;;;;;;;24.02;6.47;;;;;;;-1.63;53.51;98804.69;5021678;28;20069;-53
2022/03/31 02:02:13;;;;;;;13.40;6.63;;;;;;;-1.65;53.41;98803.84;5010432;28;20448;-51
2022/03/31 02:04:40;;;;;;;21.38;6.72;;;;;;;-1.65;53.32;98805.53;5060966;28;20444;-53
2022/03/31 02:07:07;;;;;;;15.15;6.30;;;;;;;-1.64;53.49;98799.59;5030132;28;20087;-54
2022/03/31 02:09:33;;;;;;;20.23;6.93;;;;;;;-1.64;53.65;98810.63;5030496;28;20070;-54
2022/03/31 02:11:59;;;;;;;16.05;5.65;;;;;;;-1.65;53.46;98805.53;5022154;28;20037;-52
2022/03/31 02:14:25;;;;;;;20.13;6.95;;;;;;;-1.64;53.48;98804.69;5025517;28;20038;-52
2022/03/31 02:16:51;;;;;;;13.60;5.90;;;;;;;-1.64;53.51;98804.69;5030530;28;20525;-51
2022/03/31 02:19:17;;;;;;;15.60;6.40;;;;;;;-1.70;53.57;98800.44;5030580;28;20057;-52
2022/03/31 02:21:46;;;;;;;19.58;6.18;;;;;;;-1.68;53.47;98800.44;5015813;28;20517;-53
2022/03/31 02:24:12;;;;;;;16.17;6.53;;;;;;;-1.72;53.47;98797.03;5030048;28;20041;-56
2022/03/31 02:26:38;;;;;;;18.83;6.32;;;;;;;-1.87;53.84;98782.59;5029975;28;20495;-53
2022/03/31 02:29:04;;;;;;;11.30;6.28;;;;;;;-1.79;53.14;98806.41;5029396;28;20413;-53
2022/03/31 02:31:31;;;;;;;12.48;6.35;;;;;;;-1.81;53.13;98802.13;5021912;28;20049;-53
2022/03/31 02:33:57;;;;;;;15.80;6.43;;;;;;;-1.81;53.46;98809.78;5012167;28;20087;-46
2022/03/31 02:36:26;;;;;;;21.25;6.65;;;;;;;-1.83;53.58;98811.47;5030467;28;20045;-51
2022/03/31 02:38:52;;;;;;;13.18;6.78;;;;;;;-1.86;53.55;98821.66;5029512;28;20041;-53
2022/03/31 02:41:19;;;;;;;13.68;6.18;;;;;;;-1.91;53.36;98816.56;5025406;28;20051;-52
2022/03/31 02:43:45;;;;;;;14.48;6.45;;;;;;;-1.99;53.45;98800.41;5030501;28;20040;-53
2022/03/31 02:46:11;;;;;;;17.08;5.97;;;;;;;-1.89;53.48;98822.53;5030614;28;20049;-51
2022/03/31 02:48:36;;;;;;;18.75;7.60;;;;;;;-1.91;53.54;98820.81;5030048;28;20047;-53
2022/03/31 02:51:02;;;;;;;14.70;7.32;;;;;;;-1.93;53.53;98820.78;5019621;28;20517;-53
2022/03/31 02:56:12;;;;;;;14.52;6.60;;;;;;;-1.94;53.79;98833.53;5019615;28;20037;-52
2022/03/31 02:58:38;;;;;;;23.17;7.30;;;;;;;-1.97;53.63;98823.34;5043814;28;20096;-51
2022/03/31 03:01:04;;;;;;;14.95;7.30;;;;;;;-1.97;53.50;98830.97;5021462;28;20118;-52
2022/03/31 03:03:32;;;;;;;12.77;6.85;;;;;;;-2.06;53.72;98801.25;5030004;28;20215;-50
2022/03/31 03:05:59;;;;;;;19.13;7.65;;;;;;;-1.95;53.74;98826.75;5029260;28;20041;-50
2022/03/31 03:08:27;;;;;;;21.42;7.07;;;;;;;-1.91;53.76;98836.94;5029394;28;20042;-52
2022/03/31 03:10:57;;;;;;;13.85;6.93;;;;;;;-1.88;53.65;98838.63;5020049;28;20049;-51
2022/03/31 03:13:23;;;;;;;18.38;7.53;;;;;;;-1.89;53.76;98836.94;5027357;28;20048;-50
2022/03/31 03:15:49;;;;;;;17.85;7.72;;;;;;;-1.93;53.74;98838.63;5029124;28;20041;-52
2022/03/31 03:18:18;;;;;;;24.58;8.63;;;;;;;-2.15;53.91;98802.06;5030212;28;20095;-51
2022/03/31 03:20:45;;;;;;;17.15;7.47;;;;;;;-1.87;54.44;98848.81;5028227;28;20428;-54
2022/03/31 03:23:11;;;;;;;21.10;8.07;;;;;;;-1.88;54.65;98849.66;5029837;28;20045;-54
2022/03/31 03:25:36;;;;;;;18.58;7.75;;;;;;;-1.86;54.35;98847.97;5033249;28;20049;-52
2022/03/31 03:28:03;;;;;;;23.23;8.30;;;;;;;-1.81;54.70;98847.97;5034433;28;20065;-49
2022/03/31 03:30:29;;;;;;;23.75;8.88;;;;;;;-1.81;54.79;98847.97;5032576;28;20131;-49
2022/03/31 03:32:54;;;;;;;17.52;8.27;;;;;;;-1.80;54.91;98855.63;5040995;28;20461;-53
2022/03/31 03:35:20;;;;;;;20.25;8.85;;;;;;;-1.76;54.90;98848.84;5033344;28;20045;-54
2022/03/31 03:37:46;;;;;;;21.05;8.40;;;;;;;-1.73;54.91;98846.31;5016592;28;20047;-54
2022/03/31 03:40:14;;;;;;;16.00;7.45;;;;;;;-1.72;54.79;98848.00;5031903;28;20047;-52
2022/03/31 03:42:40;;;;;;;18.52;8.43;;;;;;;-1.76;54.96;98839.50;5025033;28;21701;-54
2022/03/31 03:45:07;;;;;;;23.52;8.57;;;;;;;-1.65;54.79;98852.25;5032878;28;20072;-54
2022/03/31 03:47:33;;;;;;;19.98;8.57;;;;;;;-1.77;54.63;98829.28;5033642;28;20033;-54
2022/03/31 03:49:59;;;;;;;24.35;10.15;;;;;;;-1.51;54.82;98857.34;5025516;28;20050;-55
2022/03/31 03:52:25;;;;;;;21.85;9.32;;;;;;;-1.44;54.95;98849.72;5026451;28;20048;-54
2022/03/31 03:54:51;;;;;;;22.15;9.02;;;;;;;-1.35;54.99;98852.25;5024454;28;20041;-54
2022/03/31 03:57:17;;;;;;;20.58;9.05;;;;;;;-1.25;54.67;98852.25;5033505;28;20513;-54
2022/03/31 03:59:43;;;;;;;20.00;8.98;;;;;;;-1.14;54.73;98853.94;5033662;28;20135;-55
2022/03/31 04:02:09;;;;;;;18.23;8.70;;;;;;;-1.06;54.41;98853.94;5029771;28;20132;-56
2022/03/31 04:04:35;;;;;;;20.83;8.73;;;;;;;-0.95;54.35;98849.69;5033204;28;20041;-52
2022/03/31 04:07:00;;;;;;;24.17;10.57;;;;;;;-0.85;54.00;98861.56;5032340;28;20052;-52
2022/03/31 04:09:26;;;;;;;30.30;10.52;;;;;;;-0.82;53.96;98845.38;5031525;28;20090;-55
2022/03/31 04:11:52;;;;;;;21.95;9.43;;;;;;;-0.74;53.52;98849.63;5026037;28;20037;-51
2022/03/31 04:14:19;;;;;;;27.23;9.75;;;;;;;-0.54;53.52;98864.88;5033342;28;20102;-54
2022/03/31 04:16:45;;;;;;;23.80;10.30;;;;;;;-0.48;53.43;98857.19;5033077;28;20033;-54
2022/03/31 04:19:11;;;;;;;28.90;11.05;;;;;;;-0.39;52.96;98857.16;5033131;28;20045;-56
2022/03/31 04:21:38;;;;;;;28.77;10.77;;;;;;;-0.17;52.80;98870.69;5025672;28;20045;-54
2022/03/31 04:24:04;;;;;;;25.90;9.68;;;;;;;-0.04;52.57;98873.16;5026978;28;20041;-55
2022/03/31 04:26:31;;;;;;;27.42;10.43;;;;;;;0.10;52.60;98877.38;5031502;28;20033;-53
2022/03/31 04:28:57;;;;;;;30.10;12.43;;;;;;;0.10;52.29;98854.38;5031605;28;20136;-57
2022/03/31 04:31:23;;;;;;;22.13;10.93;;;;;;;0.35;51.76;98878.91;5030987;28;20567;-55
2022/03/31 04:33:49;;;;;;;35.35;11.07;;;;;;;0.46;51.73;98871.16;5029510;28;20033;-52
2022/03/31 04:36:15;;;;;;;22.73;9.57;;;;;;;0.60;51.82;98875.31;5031262;28;20038;-54
2022/03/31 04:38:41;;;;;;;22.42;10.35;;;;;;;0.68;51.40;98876.09;5032498;28;20049;-52
2022/03/31 04:41:07;;;;;;;24.00;9.95;;;;;;;0.87;51.45;98883.63;5024229;28;20059;-53
2022/03/31 04:43:32;;;;;;;27.23;9.10;;;;;;;0.92;51.13;98869.94;5016642;28;20045;-53
2022/03/31 04:45:58;;;;;;;23.65;8.15;;;;;;;1.03;51.39;98886.06;5013028;28;20071;-56
2022/03/31 04:48:24;;;;;;;22.10;10.00;;;;;;;1.16;51.18;98897.00;5025044;28;20026;-56
2022/03/31 04:50:49;;;;;;;21.90;8.75;;;;;;;1.32;51.15;98890.88;5030540;28;20045;-57
2022/03/31 04:53:17;;;;;;;19.60;9.05;;;;;;;1.51;50.56;98892.41;5026804;28;20091;-54
2022/03/31 04:55:43;;;;;;;15.15;7.30;;;;;;;1.66;50.11;98894.78;5026676;28;20440;-53
2022/03/31 04:58:09;;;;;;;14.57;5.55;;;;;;;1.86;50.23;98884.31;5032006;28;20046;-54
2022/03/31 05:00:35;;;;;;;6.90;3.38;;;;;;;1.98;50.47;98886.72;5032008;28;20406;-54
2022/03/31 05:03:01;;;;;;;11.40;3.10;;;;;;;1.83;51.42;98875.81;5031652;28;20057;-57
2022/03/31 05:05:27;;;;;;;6.45;2.80;;;;;;;1.81;52.28;98888.63;5031297;28;20037;-55
2022/03/31 05:07:54;;;;;;;5.90;2.67;;;;;;;1.90;52.74;98887.66;5028788;28;20091;-54
2022/03/31 05:10:20;;;;;;;3.55;2.17;;;;;;;2.03;52.79;98890.06;5028445;28;20063;-55
2022/03/31 05:12:45;;;;;;;3.30;2.13;;;;;;;2.08;53.20;98895.97;5030230;28;20505;-56
2022/03/31 05:15:11;;;;;;;3.08;2.00;;;;;;;1.96;53.40;98870.50;5030732;28;20045;-56
2022/03/31 05:17:38;;;;;;;5.88;2.40;;;;;;;2.21;53.47;98895.81;5033305;28;20040;-55
2022/03/31 05:20:09;;;;;;;6.35;2.25;;;;;;;2.37;53.50;98887.03;5029865;28;20049;-58
2022/03/31 05:22:36;;;;;;;5.57;3.08;;;;;;;2.72;53.12;98892.47;5030971;28;20060;-56
2022/03/31 05:25:02;;;;;;;6.93;2.30;;;;;;;2.92;52.56;98887.91;5033457;28;20064;-51
2022/03/31 05:27:29;;;;;;;5.13;2.00;;;;;;;2.89;52.51;98884.50;5028490;28;20485;-54
2022/03/31 05:29:54;;;;;;;7.00;2.80;;;;;;;3.01;52.60;98886.88;5036279;28;20045;-53
2022/03/31 05:32:20;;;;;;;5.45;2.03;;;;;;;3.19;52.19;98889.13;5028241;28;20124;-55
2022/03/31 05:34:46;;;;;;;4.38;1.95;;;;;;;3.30;52.27;98894.91;5023693;28;20148;-52
2022/03/31 05:37:12;;;;;;;5.03;2.22;;;;;;;3.26;52.45;98900.13;5030400;28;20507;-58
2022/03/31 05:39:37;;;;;;;4.07;1.80;;;;;;;3.11;53.01;98892.72;5029605;28;20041;-53
2022/03/31 05:42:04;;;;;;;8.68;2.60;;;;;;;3.18;52.97;98897.72;5030749;28;20575;-48
2022/03/31 05:44:30;;;;;;;8.82;2.03;;;;;;;3.28;52.84;98895.84;5030451;28;20041;-46
2022/03/31 05:46:56;;;;;;;4.32;2.13;;;;;;;3.25;53.21;98901.00;5022142;28;20034;-46
2022/03/31 05:49:21;;;;;;;5.18;2.58;;;;;;;3.24;53.32;98905.31;5035042;28;20413;-48
2022/03/31 05:51:47;;;;;;;4.22;2.10;;;;;;;3.33;52.98;98902.59;5037322;28;20047;-45
2022/03/31 05:54:13;;;;;;;4.50;2.90;;;;;;;3.52;53.00;98905.66;5032080;28;20080;-53
2022/03/31 05:56:39;;;;;;;7.18;1.90;;;;;;;3.64;52.88;98908.00;5030267;28;20073;-46
2022/03/31 05:59:05;;;;;;;8.40;2.35;;;;;;;3.72;52.30;98912.97;5028518;28;20037;-49
2022/03/31 06:01:31;;;;;;;4.43;2.28;;;;;;;4.00;52.00;98918.44;5030640;28;20037;-50
2022/03/31 06:03:57;;;;;;;3.55;1.65;;;;;;;4.19;51.17;98914.59;5029101;28;20057;-47
2022/03/31 06:06:23;;;;;;;6.40;1.90;;;;;;;4.17;50.86;98911.22;5027751;28;20046;-48
2022/03/31 06:08:50;;;;;;;5.13;1.80;;;;;;;4.30;50.80;98916.94;5029079;28;20045;-50
2022/03/31 06:11:15;;;;;;;4.47;1.90;;;;;;;4.70;50.44;98920.34;5027295;28;20041;-47
2022/03/31 06:13:42;;;;;;;4.60;1.98;;;;;;;4.94;49.13;98922.34;5059382;28;20171;-48
2022/03/31 06:16:10;;;;;;;3.25;1.75;;;;;;;4.90;48.68;98928.47;5038814;28;20040;-51
2022/03/31 06:18:36;;;;;;;5.82;2.22;;;;;;;4.89;48.93;98931.06;5028240;28;20038;-49
2022/03/31 06:21:03;;;;;;;4.88;2.10;;;;;;;5.00;48.32;98917.03;5041151;28;20542;-51
2022/03/31 06:23:29;;;;;;;4.68;1.67;;;;;;;5.31;48.09;98939.47;5030888;28;20057;-46
2022/03/31 06:25:56;;;;;;;3.00;1.42;;;;;;;5.41;47.27;98935.78;5026672;28;20521;-50
2022/03/31 06:28:23;;;;;;;3.33;1.73;;;;;;;5.22;47.59;98919.09;5011921;28;20194;-48
2022/03/31 06:30:49;;;;;;;5.70;2.00;;;;;;;5.05;48.33;98922.09;5029203;28;20049;-47
2022/03/31 06:33:16;;;;;;;5.68;1.92;;;;;;;5.01;48.77;98931.63;5029544;28;20041;-49
2022/03/31 06:35:41;;;;;;;6.45;2.28;;;;;;;5.31;48.35;98936.91;5030175;28;20083;-46
2022/03/31 06:38:08;;;;;;;4.95;2.50;;;;;;;5.67;47.50;98929.94;5025878;28;20076;-46
2022/03/31 06:40:37;;;;;;;7.80;2.85;;;;;;;5.79;47.41;98945.94;5030648;28;20063;-46
2022/03/31 06:43:04;;;;;;;5.82;2.20;;;;;;;5.68;47.08;98939.38;5018003;28;20088;-47
2022/03/31 06:45:34;;;;;;;4.15;2.25;;;;;;;5.48;46.77;98942.47;5030152;28;20052;-49
2022/03/31 06:48:01;;;;;;;4.75;2.53;;;;;;;5.46;47.51;98946.81;5011789;28;20176;-47
2022/03/31 06:50:32;;;;;;;5.63;2.78;;;;;;;5.30;47.22;98940.34;5039933;28;20099;-45
2022/03/31 06:52:58;;;;;;;4.88;2.17;;;;;;;5.25;47.30;98930.16;5033287;28;20042;-47
2022/03/31 06:55:25;;;;;;;4.00;2.17;;;;;;;5.44;47.21;98940.88;5016486;28;20053;-50
2022/03/31 06:57:50;;;;;;;8.40;2.17;;;;;;;5.34;46.83;98945.38;5025765;28;20042;-47
2022/03/31 07:00:16;;;;;;;6.70;2.90;;;;;;;5.12;47.52;98926.22;5034813;28;20045;-47
2022/03/31 07:02:42;;;;;;;5.97;2.50;;;;;;;5.50;46.94;98935.53;5028323;28;20088;-45
2022/03/31 07:05:08;;;;;;;4.70;2.40;;;;;;;5.69;46.97;98947.06;5028438;28;20049;-45
2022/03/31 07:07:34;;;;;;;9.50;3.05;;;;;;;5.69;47.19;98939.34;5028531;28;20421;-46
2022/03/31 07:10:01;;;;;;;6.45;2.70;;;;;;;6.03;46.89;98938.44;5028772;28;20043;-44
2022/03/31 07:12:27;;;;;;;9.00;2.63;;;;;;;6.05;45.88;98934.94;5017541;28;20060;-45
2022/03/31 07:14:53;;;;;;;4.25;1.95;;;;;;;5.72;46.02;98917.78;5013710;28;20049;-45
2022/03/31 07:17:18;;;;;;;6.32;2.13;;;;;;;5.77;46.34;98929.66;5024605;28;20054;-46
2022/03/31 07:19:44;;;;;;;6.82;2.08;;;;;;;5.92;45.92;98926.69;5028624;28;20045;-46
2022/03/31 07:22:10;;;;;;;6.00;2.20;;;;;;;5.95;45.29;98929.19;5021785;28;20076;-46
2022/03/31 07:24:36;;;;;;;7.05;2.33;;;;;;;6.00;45.87;98935.97;5010490;28;20488;-49
2022/03/31 07:27:01;;;;;;;3.95;2.38;;;;;;;5.91;45.53;98908.69;5013767;28;20049;-48
2022/03/31 07:29:28;;;;;;;4.35;2.30;;;;;;;6.08;44.95;98936.56;5013912;28;20045;-46
2022/03/31 07:31:53;;;;;;;4.47;2.17;;;;;;;6.20;44.50;98934.50;5023355;28;20381;-48
2022/03/31 07:34:19;;;;;;;3.80;1.98;;;;;;;6.69;43.58;98935.63;5008914;28;20460;-47
2022/03/31 07:36:45;;;;;;;4.85;2.17;;;;;;;6.40;43.51;98946.81;5010657;28;20430;-47
2022/03/31 07:39:11;;;;;;;5.18;2.30;;;;;;;6.16;44.84;98945.81;5010647;28;20042;-45
2022/03/31 07:41:37;;;;;;;5.15;2.50;;;;;;;6.31;44.13;98945.38;5025057;28;20593;-48
2022/03/31 07:44:02;;;;;;;8.02;2.45;;;;;;;6.45;44.23;98942.38;5010624;28;20048;-45
2022/03/31 07:46:32;;;;;;;3.80;2.00;;;;;;;6.72;43.19;98938.97;5010495;28;20049;-45
2022/03/31 07:48:59;;;;;;;5.97;2.10;;;;;;;6.65;43.07;98931.44;5019133;28;20047;-46
2022/03/31 07:51:26;;;;;;;4.28;2.60;;;;;;;6.69;43.05;98935.63;5028342;28;20131;-51
2022/03/31 07:53:52;;;;;;;7.20;2.47;;;;;;;6.74;42.54;98941.50;5030244;28;20107;-46
2022/03/31 07:56:18;;;;;;;5.70;2.38;;;;;;;6.81;43.19;98951.59;5028534;28;20472;-45
2022/03/31 07:58:44;;;;;;;8.65;2.35;;;;;;;6.51;42.72;98936.19;5023704;28;20037;-45
2022/03/31 08:01:11;;;;;;;4.28;2.63;;;;;;;6.59;42.45;98937.66;5029942;28;20048;-46
2022/03/31 08:03:38;;;;;;;7.70;2.10;;;;;;;6.92;42.04;98945.22;5028706;28;20088;-46
2022/03/31 08:06:04;;;;;;;5.85;2.53;;;;;;;6.90;41.83;98939.28;5030183;28;20041;-49
2022/03/31 08:08:29;;;;;;;5.50;2.60;;;;;;;6.85;41.90;98944.59;5026308;28;20034;-46
2022/03/31 08:10:55;;;;;;;11.10;2.63;;;;;;;6.80;41.84;98943.91;5033045;28;20048;-46
2022/03/31 08:13:26;;;;;;;8.85;2.80;;;;;;;6.58;42.63;98942.84;5022204;28;20080;-48
2022/03/31 08:15:53;;;;;;;4.22;2.60;;;;;;;6.36;42.51;98943.50;5061040;28;20041;-48
2022/03/31 08:18:28;;;;;;;6.72;2.83;;;;;;;6.21;43.41;98949.09;5031721;28;20584;-46
2022/03/31 08:20:58;;;;;;;18.02;7.00;;;;;;;6.25;42.95;98939.53;5032295;28;20041;-45
2022/03/31 08:23:24;;;;;;;5.88;2.80;;;;;;;6.24;42.67;98940.41;5021841;28;20128;-46
2022/03/31 08:25:51;;;;;;;11.70;3.22;;;;;;;6.25;42.59;98921.47;5013405;28;20049;-48
2022/03/31 08:28:16;;;;;;;11.15;3.08;;;;;;;6.38;42.77;98933.94;5024139;28;20347;-45
2022/03/31 08:30:43;;;;;;;11.73;3.17;;;;;;;6.37;42.03;98940.03;5065025;28;20095;-46
2022/03/31 08:33:09;;;;;;;7.57;3.20;;;;;;;6.35;42.02;98933.22;5031705;28;20436;-46
2022/03/31 08:35:35;;;;;;;11.18;3.47;;;;;;;6.57;42.32;98925.66;5021865;28;20137;-49
2022/03/31 08:38:01;;;;;;;11.38;3.88;;;;;;;6.54;42.60;98924.00;5021673;28;20132;-48
2022/03/31 08:40:26;;;;;;;6.90;3.70;;;;;;;6.30;43.12;98925.59;5033162;28;20072;-45
2022/03/31 08:42:54;;;;;;;8.07;3.67;;;;;;;6.51;42.99;98928.44;5032752;28;20454;-45
2022/03/31 08:45:21;;;;;;;7.93;4.03;;;;;;;6.68;42.86;98921.03;5031604;28;20037;-46
2022/03/31 08:47:53;;;;;;;7.82;3.70;;;;;;;6.93;43.16;98924.53;5032509;28;20811;-44
2022/03/31 08:50:21;;;;;;;9.82;3.65;;;;;;;6.94;42.83;98933.13;5032267;28;20156;-48
2022/03/31 08:52:47;;;;;;;5.70;2.50;;;;;;;6.33;43.78;98909.19;5031716;28;20049;-47
2022/03/31 08:55:13;;;;;;;8.75;3.25;;;;;;;6.04;45.23;98922.06;5032087;28;20091;-43
2022/03/31 08:57:40;;;;;;;5.82;2.80;;;;;;;6.08;45.06;98928.84;5032130;28;20129;-46
2022/03/31 09:00:07;;;;;;;5.55;2.95;;;;;;;6.17;45.73;98928.59;5031655;28;20041;-44
2022/03/31 09:02:32;;;;;;;4.97;2.60;;;;;;;6.12;45.65;98912.41;5032615;28;20069;-45
2022/03/31 09:05:06;;;;;;;10.73;2.88;;;;;;;6.09;45.85;98915.03;5032674;28;20458;-46
2022/03/31 09:07:32;;;;;;;6.00;2.67;;;;;;;6.21;45.62;98910.38;5011487;28;20065;-45
2022/03/31 09:09:58;;;;;;;4.28;2.47;;;;;;;6.08;46.54;98921.94;5014105;28;20088;-47
2022/03/31 09:12:26;;;;;;;6.43;2.85;;;;;;;5.87;47.02;98917.38;5012550;28;20046;-45
2022/03/31 09:14:54;;;;;;;7.05;2.55;;;;;;;5.97;46.55;98920.56;5030586;28;20053;-44
2022/03/31 09:17:19;;;;;;;9.60;2.70;;;;;;;5.68;48.23;98921.31;5032189;28;20124;-44
2022/03/31 09:19:45;;;;;;;4.93;2.60;;;;;;;5.72;47.87;98923.78;5031764;28;20128;-45
2022/03/31 09:22:11;;;;;;;6.60;2.67;;;;;;;5.82;47.87;98919.19;5031430;28;20084;-45
2022/03/31 09:24:37;;;;;;;5.93;2.47;;;;;;;6.26;46.95;98913.69;5023316;28;20069;-46
2022/03/31 09:27:04;;;;;;;7.20;2.47;;;;;;;6.77;46.15;98912.97;5011873;28;20053;-45
2022/03/31 09:29:32;;;;;;;5.90;2.30;;;;;;;7.28;45.52;98904.44;5003444;28;20427;-45
2022/03/31 09:32:09;;;;;;;7.55;2.53;;;;;;;7.59;44.35;98894.72;5010606;28;20089;-45
2022/03/31 09:34:39;;;;;;;4.22;2.50;;;;;;;7.77;43.84;98891.50;5010447;28;20069;-47
2022/03/31 09:37:04;;;;;;;6.50;2.53;;;;;;;7.77;43.75;98891.50;5012319;28;20103;-44
2022/03/31 09:39:30;;;;;;;11.00;2.55;;;;;;;7.77;44.21;98886.34;5023465;28;20045;-44
2022/03/31 09:41:57;;;;;;;8.00;3.10;;;;;;;7.65;44.20;98881.59;5031488;28;20124;-45
2022/03/31 09:44:23;;;;;;;6.75;2.78;;;;;;;7.38;44.53;98873.03;5031464;28;20402;-44
2022/03/31 09:46:50;;;;;;;9.80;3.00;;;;;;;7.35;44.34;98895.56;5030489;28;20052;-45
2022/03/31 09:49:24;;;;;;;13.25;3.75;;;;;;;7.20;44.82;98889.19;5029858;28;20038;-46
2022/03/31 09:51:53;;;;;;;9.02;3.85;;;;;;;6.90;44.81;98888.47;5010533;28;20113;-46
2022/03/31 09:54:23;;;;;;;12.23;5.88;;;;;;;6.82;45.34;98886.13;5011866;28;20104;-46
2022/03/31 09:56:49;;;;;;;12.90;4.63;;;;;;;6.88;45.05;98890.25;5017787;28;20520;-46
2022/03/31 09:59:16;;;;;;;12.13;4.75;;;;;;;6.92;45.29;98886.66;5015824;28;20065;-45
2022/03/31 10:01:42;;;;;;;12.07;5.00;;;;;;;7.07;45.04;98887.88;5011649;28;20042;-47
2022/03/31 10:04:10;;;;;;;8.25;5.18;;;;;;;7.13;45.50;98887.69;5043511;28;20058;-48
2022/03/31 10:06:39;;;;;;;13.98;5.22;;;;;;;7.09;46.21;98886.97;5014399;28;20044;-47
2022/03/31 10:09:06;;;;;;;11.45;5.57;;;;;;;7.15;46.05;98876.44;5031528;28;20026;-46
2022/03/31 10:11:34;;;;;;;11.38;5.35;;;;;;;7.16;46.58;98882.44;5062518;28;20090;-45
2022/03/31 10:14:06;;;;;;;14.43;5.43;;;;;;;7.19;47.51;98890.94;5028783;28;20537;-47
2022/03/31 10:16:56;;;;;;;9.68;4.95;;;;;;;7.04;48.02;98883.69;5030896;28;20056;-46
2022/03/31 10:19:36;;;;;;;14.10;5.47;;;;;;;6.82;48.23;98882.69;5028431;28;20046;-45
2022/03/31 10:22:03;;;;;;;10.15;5.63;;;;;;;6.65;48.25;98893.53;5028175;28;20424;-46
2022/03/31 10:24:42;;;;;;;11.18;5.47;;;;;;;6.39;49.45;98883.16;5024774;28;20083;-45
2022/03/31 10:27:29;;;;;;;12.80;6.57;;;;;;;6.18;50.45;98884.66;5031082;28;20063;-46
2022/03/31 10:30:16;;;;;;;15.63;6.43;;;;;;;5.83;51.54;98882.22;5030281;28;20456;-46
2022/03/31 10:32:56;;;;;;;12.05;6.50;;;;;;;5.77;52.88;98880.66;5045674;28;20042;-44
2022/03/31 10:35:29;;;;;;;;;;;;;;;5.77;53.19;98874.66;5030369;28;20037;-46
2022/03/31 10:37:56;;;;;;;10.40;5.60;;;;;;;5.75;54.31;98873.88;5030719;28;19921;-44
2022/03/31 10:40:30;;;;;;;12.18;6.28;;;;;;;5.82;54.80;98877.94;5045927;28;20044;-47
2022/03/31 10:42:56;;;;;;;18.88;7.93;;;;;;;5.89;54.85;98875.19;5030530;28;20099;-44
2022/03/31 10:45:32;;;;;;;11.07;5.70;;;;;;;5.88;55.20;98865.75;5030444;28;20124;-45
2022/03/31 10:47:58;;;;;;;11.48;5.70;;;;;;;5.89;55.67;98875.19;5017662;28;20033;-44
2022/03/31 10:50:25;;;;;;;9.50;5.30;;;;;;;5.85;55.81;98870.97;5030774;28;20106;-45
2022/03/31 10:52:59;;;;;;;11.50;5.35;;;;;;;5.95;55.57;98874.16;5029628;28;20064;-46
2022/03/31 10:55:34;;;;;;;9.80;5.32;;;;;;;6.00;55.86;98876.63;5062694;28;20394;-46
2022/03/31 10:57:59;;;;;;;12.25;6.38;;;;;;;6.01;56.26;98880.91;5030610;28;20046;-47
2022/03/31 11:00:25;;;;;;;13.23;7.10;;;;;;;6.07;57.12;98872.97;5017805;28;20056;-46
2022/03/31 11:02:54;;;;;;;10.30;6.20;;;;;;;5.98;57.34;98879.22;5010677;28;20054;-43
2022/03/31 11:05:25;;;;;;;13.00;6.25;;;;;;;5.90;57.91;98865.72;5028115;28;20156;-46
2022/03/31 11:08:04;;;;;;;11.65;6.22;;;;;;;5.83;58.16;98877.06;5012874;28;20034;-44
2022/03/31 11:10:40;;;;;;;10.82;6.75;;;;;;;5.66;57.87;98858.63;5028897;28;20037;-46
2022/03/31 11:13:07;;;;;;;14.38;6.32;;;;;;;5.77;58.83;98872.06;5025700;28;20044;-45
2022/03/31 11:15:33;;;;;;;12.15;6.30;;;;;;;5.68;58.29;98865.44;5040870;28;20144;-46
2022/03/31 11:18:00;;;;;;;15.45;6.75;;;;;;;5.65;58.83;98860.38;5010454;28;20720;-48
2022/03/31 11:20:27;;;;;;;11.18;6.55;;;;;;;5.71;59.89;98857.59;5014465;28;20132;-44
2022/03/31 11:22:54;;;;;;;14.45;6.90;;;;;;;5.82;59.73;98860.72;5028897;28;20071;-44
2022/03/31 11:25:20;;;;;;;13.93;6.10;;;;;;;5.74;60.62;98838.63;5024443;28;20048;-48
2022/03/31 11:27:47;;;;;;;13.15;6.35;;;;;;;5.66;60.34;98831.09;5025560;28;20038;-48
2022/03/31 11:30:18;;;;;;;13.68;6.70;;;;;;;5.67;60.27;98839.69;5023856;28;20061;-45
2022/03/31 11:32:45;;;;;;;11.25;6.63;;;;;;;5.72;60.98;98858.47;5029885;28;20041;-46
2022/03/31 11:35:17;;;;;;;12.68;6.47;;;;;;;5.57;61.54;98852.00;5028702;28;20044;-44
2022/03/31 11:38:04;;;;;;;12.38;6.60;;;;;;;5.29;61.79;98825.25;5027435;28;20549;-45
2022/03/31 11:40:35;;;;;;;11.85;6.00;;;;;;;5.36;62.84;98858.56;5045224;28;20505;-46
2022/03/31 11:43:03;;;;;;;11.70;6.55;;;;;;;5.19;63.24;98862.47;5028977;28;20046;-47
2022/03/31 11:45:34;;;;;;;11.13;5.80;;;;;;;5.09;63.27;98849.00;5030235;28;20115;-46
2022/03/31 11:48:06;;;;;;;9.93;5.80;;;;;;;5.02;64.25;98858.59;5032314;28;20503;-47
2022/03/31 11:50:34;;;;;;;13.60;5.82;;;;;;;4.98;64.26;98856.97;5033638;28;20524;-46